sensor_id;sensor_type;location;lat;lon;timestamp;P1;durP1;ratioP1;P2;durP2;ratioP2
23466;SDS011;59740;47.696;11.746;2023-11-19T00:02:00;0.30;;;0.30;;
23466;SDS011;59740;47.696;11.746;2023-11-19T00:04:29;0.88;;;0.40;;
23466;SDS011;59740;47.696;11.746;2023-11-19T00:06:59;3.85;;;0.90;;
23466;SDS011;59740;47.696;11.746;2023-11-19T00:09:32;0.35;;;0.30;;
23466;SDS011;59740;47.696;11.746;2023-11-19T00:12:03;0.60;;;0.32;;
23466;SDS011;59740;47.696;11.746;2023-11-19T00:14:33;0.50;;;0.38;;
23466;SDS011;59740;47.696;11.746;2023-11-19T00:17:02;0.93;;;0.50;;
23466;SDS011;59740;47.696;11.746;2023-11-19T00:19:31;0.32;;;0.22;;
23466;SDS011;59740;47.696;11.746;2023-11-19T00:22:01;0.55;;;0.32;;
23466;SDS011;59740;47.696;11.746;2023-11-19T00:24:30;0.70;;;0.45;;
23466;SDS011;59740;47.696;11.746;2023-11-19T00:26:59;0.90;;;0.45;;
23466;SDS011;59740;47.696;11.746;2023-11-19T00:29:27;2.60;;;0.40;;
23466;SDS011;59740;47.696;11.746;2023-11-19T00:31:55;1.05;;;0.50;;
23466;SDS011;59740;47.696;11.746;2023-11-19T00:34:24;0.47;;;0.30;;
23466;SDS011;59740;47.696;11.746;2023-11-19T00:36:53;0.65;;;0.40;;
23466;SDS011;59740;47.696;11.746;2023-11-19T00:39:23;1.00;;;0.50;;
23466;SDS011;59740;47.696;11.746;2023-11-19T00:41:51;0.68;;;0.50;;
23466;SDS011;59740;47.696;11.746;2023-11-19T00:44:20;0.40;;;0.40;;
23466;SDS011;59740;47.696;11.746;2023-11-19T00:46:48;0.52;;;0.30;;
23466;SDS011;59740;47.696;11.746;2023-11-19T00:49:17;1.75;;;0.60;;
23466;SDS011;59740;47.696;11.746;2023-11-19T00:51:45;0.90;;;0.40;;
23466;SDS011;59740;47.696;11.746;2023-11-19T00:54:14;0.95;;;0.50;;
23466;SDS011;59740;47.696;11.746;2023-11-19T00:56:43;0.90;;;0.50;;
23466;SDS011;59740;47.696;11.746;2023-11-19T00:59:12;0.52;;;0.47;;
23466;SDS011;59740;47.696;11.746;2023-11-19T01:01:41;0.40;;;0.40;;
23466;SDS011;59740;47.696;11.746;2023-11-19T01:04:09;0.60;;;0.50;;
23466;SDS011;59740;47.696;11.746;2023-11-19T01:06:38;0.85;;;0.47;;
23466;SDS011;59740;47.696;11.746;2023-11-19T01:09:15;0.55;;;0.40;;
23466;SDS011;59740;47.696;11.746;2023-11-19T01:11:45;0.63;;;0.40;;
23466;SDS011;59740;47.696;11.746;2023-11-19T01:14:13;1.02;;;0.40;;
23466;SDS011;59740;47.696;11.746;2023-11-19T01:16:42;1.10;;;0.40;;
23466;SDS011;59740;47.696;11.746;2023-11-19T01:19:11;0.90;;;0.45;;
23466;SDS011;59740;47.696;11.746;2023-11-19T01:21:44;0.52;;;0.40;;
23466;SDS011;59740;47.696;11.746;2023-11-19T01:24:12;0.50;;;0.40;;
23466;SDS011;59740;47.696;11.746;2023-11-19T01:26:41;0.90;;;0.40;;
23466;SDS011;59740;47.696;11.746;2023-11-19T01:29:14;1.52;;;0.40;;
23466;SDS011;59740;47.696;11.746;2023-11-19T01:31:42;0.60;;;0.40;;
23466;SDS011;59740;47.696;11.746;2023-11-19T01:34:11;2.15;;;0.77;;
23466;SDS011;59740;47.696;11.746;2023-11-19T01:36:40;1.55;;;0.50;;
23466;SDS011;59740;47.696;11.746;2023-11-19T01:39:08;0.70;;;0.40;;
23466;SDS011;59740;47.696;11.746;2023-11-19T01:41:37;0.60;;;0.40;;
23466;SDS011;59740;47.696;11.746;2023-11-19T01:44:06;0.68;;;0.50;;
23466;SDS011;59740;47.696;11.746;2023-11-19T01:46:36;0.82;;;0.50;;
23466;SDS011;59740;47.696;11.746;2023-11-19T01:49:06;1.05;;;0.40;;
23466;SDS011;59740;47.696;11.746;2023-11-19T01:51:35;2.35;;;0.60;;
23466;SDS011;59740;47.696;11.746;2023-11-19T01:54:04;1.05;;;0.50;;
23466;SDS011;59740;47.696;11.746;2023-11-19T01:56:33;1.23;;;0.70;;
23466;SDS011;59740;47.696;11.746;2023-11-19T01:59:03;1.75;;;0.90;;
23466;SDS011;59740;47.696;11.746;2023-11-19T02:01:32;1.98;;;0.80;;
23466;SDS011;59740;47.696;11.746;2023-11-19T02:04:06;2.15;;;1.10;;
23466;SDS011;59740;47.696;11.746;2023-11-19T02:06:36;1.80;;;0.80;;
23466;SDS011;59740;47.696;11.746;2023-11-19T02:09:09;1.60;;;0.70;;
23466;SDS011;59740;47.696;11.746;2023-11-19T02:11:39;0.75;;;0.45;;
23466;SDS011;59740;47.696;11.746;2023-11-19T02:14:08;1.40;;;0.55;;
23466;SDS011;59740;47.696;11.746;2023-11-19T02:16:36;2.03;;;0.70;;
23466;SDS011;59740;47.696;11.746;2023-11-19T02:19:06;1.45;;;0.50;;
23466;SDS011;59740;47.696;11.746;2023-11-19T02:21:37;0.98;;;0.52;;
23466;SDS011;59740;47.696;11.746;2023-11-19T02:24:06;2.22;;;0.57;;
23466;SDS011;59740;47.696;11.746;2023-11-19T02:26:39;1.73;;;0.60;;
23466;SDS011;59740;47.696;11.746;2023-11-19T02:29:13;0.90;;;0.57;;
23466;SDS011;59740;47.696;11.746;2023-11-19T02:31:42;0.93;;;0.50;;
23466;SDS011;59740;47.696;11.746;2023-11-19T02:34:10;1.00;;;0.50;;
23466;SDS011;59740;47.696;11.746;2023-11-19T02:36:39;1.23;;;0.65;;
23466;SDS011;59740;47.696;11.746;2023-11-19T02:39:08;0.65;;;0.50;;
23466;SDS011;59740;47.696;11.746;2023-11-19T02:41:37;1.25;;;0.60;;
23466;SDS011;59740;47.696;11.746;2023-11-19T02:44:07;0.80;;;0.50;;
23466;SDS011;59740;47.696;11.746;2023-11-19T02:46:37;0.77;;;0.50;;
23466;SDS011;59740;47.696;11.746;2023-11-19T02:49:09;1.13;;;0.50;;
23466;SDS011;59740;47.696;11.746;2023-11-19T02:51:38;0.77;;;0.50;;
23466;SDS011;59740;47.696;11.746;2023-11-19T02:54:06;0.70;;;0.40;;
23466;SDS011;59740;47.696;11.746;2023-11-19T02:56:34;1.83;;;0.60;;
23466;SDS011;59740;47.696;11.746;2023-11-19T02:59:05;0.68;;;0.47;;
23466;SDS011;59740;47.696;11.746;2023-11-19T03:01:44;1.92;;;0.45;;
23466;SDS011;59740;47.696;11.746;2023-11-19T03:04:17;0.50;;;0.38;;
23466;SDS011;59740;47.696;11.746;2023-11-19T03:06:47;0.88;;;0.40;;
23466;SDS011;59740;47.696;11.746;2023-11-19T03:09:16;2.00;;;0.50;;
23466;SDS011;59740;47.696;11.746;2023-11-19T03:11:44;1.45;;;0.47;;
23466;SDS011;59740;47.696;11.746;2023-11-19T03:14:13;0.85;;;0.50;;
23466;SDS011;59740;47.696;11.746;2023-11-19T03:16:41;0.50;;;0.32;;
23466;SDS011;59740;47.696;11.746;2023-11-19T03:19:14;2.22;;;0.50;;
23466;SDS011;59740;47.696;11.746;2023-11-19T03:21:52;0.50;;;0.30;;
23466;SDS011;59740;47.696;11.746;2023-11-19T03:24:21;0.75;;;0.40;;
23466;SDS011;59740;47.696;11.746;2023-11-19T03:26:49;0.50;;;0.32;;
23466;SDS011;59740;47.696;11.746;2023-11-19T03:29:18;0.35;;;0.30;;
23466;SDS011;59740;47.696;11.746;2023-11-19T03:31:48;0.70;;;0.40;;
23466;SDS011;59740;47.696;11.746;2023-11-19T03:34:17;0.60;;;0.35;;
23466;SDS011;59740;47.696;11.746;2023-11-19T03:36:46;0.60;;;0.30;;
23466;SDS011;59740;47.696;11.746;2023-11-19T03:39:15;0.63;;;0.40;;
23466;SDS011;59740;47.696;11.746;2023-11-19T03:41:45;0.80;;;0.40;;
23466;SDS011;59740;47.696;11.746;2023-11-19T03:44:15;1.33;;;0.50;;
23466;SDS011;59740;47.696;11.746;2023-11-19T03:46:43;0.98;;;0.40;;
23466;SDS011;59740;47.696;11.746;2023-11-19T03:49:14;0.82;;;0.40;;
23466;SDS011;59740;47.696;11.746;2023-11-19T03:51:44;1.00;;;0.60;;
23466;SDS011;59740;47.696;11.746;2023-11-19T03:54:12;0.98;;;0.50;;
23466;SDS011;59740;47.696;11.746;2023-11-19T03:56:41;0.95;;;0.40;;
23466;SDS011;59740;47.696;11.746;2023-11-19T03:59:10;0.55;;;0.30;;
23466;SDS011;59740;47.696;11.746;2023-11-19T04:01:39;1.17;;;0.43;;
23466;SDS011;59740;47.696;11.746;2023-11-19T04:04:07;0.20;;;0.20;;
23466;SDS011;59740;47.696;11.746;2023-11-19T04:06:37;0.55;;;0.30;;
23466;SDS011;59740;47.696;11.746;2023-11-19T04:09:06;0.35;;;0.20;;
23466;SDS011;59740;47.696;11.746;2023-11-19T04:11:35;0.65;;;0.28;;
23466;SDS011;59740;47.696;11.746;2023-11-19T04:14:04;0.52;;;0.40;;
23466;SDS011;59740;47.696;11.746;2023-11-19T04:16:32;0.50;;;0.30;;
23466;SDS011;59740;47.696;11.746;2023-11-19T04:19:01;1.83;;;0.55;;
23466;SDS011;59740;47.696;11.746;2023-11-19T04:21:29;1.05;;;0.30;;
23466;SDS011;59740;47.696;11.746;2023-11-19T04:23:59;0.55;;;0.30;;
23466;SDS011;59740;47.696;11.746;2023-11-19T04:26:28;1.25;;;0.68;;
23466;SDS011;59740;47.696;11.746;2023-11-19T04:28:58;0.90;;;0.50;;
23466;SDS011;59740;47.696;11.746;2023-11-19T04:31:28;0.98;;;0.45;;
23466;SDS011;59740;47.696;11.746;2023-11-19T04:33:58;1.13;;;0.32;;
23466;SDS011;59740;47.696;11.746;2023-11-19T04:36:27;0.45;;;0.20;;
23466;SDS011;59740;47.696;11.746;2023-11-19T04:38:56;0.77;;;0.25;;
23466;SDS011;59740;47.696;11.746;2023-11-19T04:41:27;1.60;;;0.50;;
23466;SDS011;59740;47.696;11.746;2023-11-19T04:43:56;0.40;;;0.30;;
23466;SDS011;59740;47.696;11.746;2023-11-19T04:46:24;0.98;;;0.40;;
23466;SDS011;59740;47.696;11.746;2023-11-19T04:48:53;0.93;;;0.30;;
23466;SDS011;59740;47.696;11.746;2023-11-19T04:51:21;0.70;;;0.30;;
23466;SDS011;59740;47.696;11.746;2023-11-19T04:53:50;0.45;;;0.22;;
23466;SDS011;59740;47.696;11.746;2023-11-19T04:56:18;0.60;;;0.40;;
23466;SDS011;59740;47.696;11.746;2023-11-19T04:58:51;0.60;;;0.20;;
23466;SDS011;59740;47.696;11.746;2023-11-19T05:01:19;0.43;;;0.20;;
23466;SDS011;59740;47.696;11.746;2023-11-19T05:03:48;1.10;;;0.40;;
23466;SDS011;59740;47.696;11.746;2023-11-19T05:06:18;0.82;;;0.30;;
23466;SDS011;59740;47.696;11.746;2023-11-19T05:08:46;1.00;;;0.38;;
23466;SDS011;59740;47.696;11.746;2023-11-19T05:11:15;0.98;;;0.40;;
23466;SDS011;59740;47.696;11.746;2023-11-19T05:13:45;0.93;;;0.40;;
23466;SDS011;59740;47.696;11.746;2023-11-19T05:16:14;0.85;;;0.50;;
23466;SDS011;59740;47.696;11.746;2023-11-19T05:18:44;1.92;;;0.40;;
23466;SDS011;59740;47.696;11.746;2023-11-19T05:21:13;0.82;;;0.40;;
23466;SDS011;59740;47.696;11.746;2023-11-19T05:23:41;1.45;;;0.57;;
23466;SDS011;59740;47.696;11.746;2023-11-19T05:26:16;0.70;;;0.40;;
23466;SDS011;59740;47.696;11.746;2023-11-19T05:28:45;0.50;;;0.30;;
23466;SDS011;59740;47.696;11.746;2023-11-19T05:31:16;0.88;;;0.50;;
23466;SDS011;59740;47.696;11.746;2023-11-19T05:33:45;2.33;;;0.50;;
23466;SDS011;59740;47.696;11.746;2023-11-19T05:36:14;0.85;;;0.50;;
23466;SDS011;59740;47.696;11.746;2023-11-19T05:38:42;0.80;;;0.50;;
23466;SDS011;59740;47.696;11.746;2023-11-19T05:41:11;0.98;;;0.50;;
23466;SDS011;59740;47.696;11.746;2023-11-19T05:43:39;1.92;;;0.40;;
23466;SDS011;59740;47.696;11.746;2023-11-19T05:46:08;2.35;;;0.82;;
23466;SDS011;59740;47.696;11.746;2023-11-19T05:48:41;1.13;;;0.50;;
23466;SDS011;59740;47.696;11.746;2023-11-19T05:51:10;0.95;;;0.50;;
23466;SDS011;59740;47.696;11.746;2023-11-19T05:53:38;1.00;;;0.60;;
23466;SDS011;59740;47.696;11.746;2023-11-19T05:56:06;0.70;;;0.40;;
23466;SDS011;59740;47.696;11.746;2023-11-19T05:58:37;1.13;;;0.50;;
23466;SDS011;59740;47.696;11.746;2023-11-19T06:01:07;1.05;;;0.40;;
23466;SDS011;59740;47.696;11.746;2023-11-19T06:03:35;1.58;;;0.40;;
23466;SDS011;59740;47.696;11.746;2023-11-19T06:06:07;0.95;;;0.40;;
23466;SDS011;59740;47.696;11.746;2023-11-19T06:08:36;4.35;;;0.45;;
23466;SDS011;59740;47.696;11.746;2023-11-19T06:11:04;1.10;;;0.45;;
23466;SDS011;59740;47.696;11.746;2023-11-19T06:13:33;1.52;;;0.45;;
23466;SDS011;59740;47.696;11.746;2023-11-19T06:16:02;0.65;;;0.40;;
23466;SDS011;59740;47.696;11.746;2023-11-19T06:18:30;0.38;;;0.35;;
23466;SDS011;59740;47.696;11.746;2023-11-19T06:20:59;0.65;;;0.30;;
23466;SDS011;59740;47.696;11.746;2023-11-19T06:23:29;0.70;;;0.40;;
23466;SDS011;59740;47.696;11.746;2023-11-19T06:25:57;1.10;;;0.40;;
23466;SDS011;59740;47.696;11.746;2023-11-19T06:28:26;0.98;;;0.30;;
23466;SDS011;59740;47.696;11.746;2023-11-19T06:30:54;0.25;;;0.20;;
23466;SDS011;59740;47.696;11.746;2023-11-19T06:33:24;0.20;;;0.10;;
23466;SDS011;59740;47.696;11.746;2023-11-19T06:35:54;0.20;;;0.20;;
23466;SDS011;59740;47.696;11.746;2023-11-19T06:38:22;0.30;;;0.20;;
23466;SDS011;59740;47.696;11.746;2023-11-19T06:40:52;0.45;;;0.10;;
23466;SDS011;59740;47.696;11.746;2023-11-19T06:43:21;0.20;;;0.20;;
23466;SDS011;59740;47.696;11.746;2023-11-19T06:45:49;0.17;;;0.17;;
23466;SDS011;59740;47.696;11.746;2023-11-19T06:48:18;0.10;;;0.10;;
23466;SDS011;59740;47.696;11.746;2023-11-19T06:50:46;0.38;;;0.28;;
23466;SDS011;59740;47.696;11.746;2023-11-19T06:53:15;0.20;;;0.13;;
23466;SDS011;59740;47.696;11.746;2023-11-19T06:55:43;0.20;;;0.10;;
23466;SDS011;59740;47.696;11.746;2023-11-19T06:58:13;0.20;;;0.20;;
23466;SDS011;59740;47.696;11.746;2023-11-19T07:00:42;0.52;;;0.20;;
23466;SDS011;59740;47.696;11.746;2023-11-19T07:03:11;0.10;;;0.10;;
23466;SDS011;59740;47.696;11.746;2023-11-19T07:05:40;0.20;;;0.20;;
23466;SDS011;59740;47.696;11.746;2023-11-19T07:08:09;0.28;;;0.20;;
23466;SDS011;59740;47.696;11.746;2023-11-19T07:10:38;0.20;;;0.20;;
23466;SDS011;59740;47.696;11.746;2023-11-19T07:13:06;0.10;;;0.10;;
23466;SDS011;59740;47.696;11.746;2023-11-19T07:15:36;0.20;;;0.17;;
23466;SDS011;59740;47.696;11.746;2023-11-19T07:18:05;0.43;;;0.15;;
23466;SDS011;59740;47.696;11.746;2023-11-19T07:20:34;0.20;;;0.20;;
23466;SDS011;59740;47.696;11.746;2023-11-19T07:23:02;0.90;;;0.10;;
23466;SDS011;59740;47.696;11.746;2023-11-19T07:25:31;0.28;;;0.20;;
23466;SDS011;59740;47.696;11.746;2023-11-19T07:28:02;0.17;;;0.10;;
23466;SDS011;59740;47.696;11.746;2023-11-19T07:30:31;0.30;;;0.20;;
23466;SDS011;59740;47.696;11.746;2023-11-19T07:33:01;0.20;;;0.20;;
23466;SDS011;59740;47.696;11.746;2023-11-19T07:35:31;0.10;;;0.10;;
23466;SDS011;59740;47.696;11.746;2023-11-19T07:37:59;0.10;;;0.10;;
23466;SDS011;59740;47.696;11.746;2023-11-19T07:40:29;1.00;;;0.20;;
23466;SDS011;59740;47.696;11.746;2023-11-19T07:42:57;0.32;;;0.15;;
23466;SDS011;59740;47.696;11.746;2023-11-19T07:45:26;0.10;;;0.10;;
23466;SDS011;59740;47.696;11.746;2023-11-19T07:47:55;0.20;;;0.20;;
23466;SDS011;59740;47.696;11.746;2023-11-19T07:50:25;0.10;;;0.10;;
23466;SDS011;59740;47.696;11.746;2023-11-19T07:52:53;0.10;;;0.10;;
23466;SDS011;59740;47.696;11.746;2023-11-19T07:55:22;0.10;;;0.10;;
23466;SDS011;59740;47.696;11.746;2023-11-19T07:57:50;0.85;;;0.10;;
23466;SDS011;59740;47.696;11.746;2023-11-19T08:00:19;0.13;;;0.13;;
23466;SDS011;59740;47.696;11.746;2023-11-19T08:02:47;0.20;;;0.20;;
23466;SDS011;59740;47.696;11.746;2023-11-19T08:05:17;0.10;;;0.10;;
23466;SDS011;59740;47.696;11.746;2023-11-19T08:07:47;0.10;;;0.10;;
23466;SDS011;59740;47.696;11.746;2023-11-19T08:10:15;0.10;;;0.10;;
23466;SDS011;59740;47.696;11.746;2023-11-19T08:12:44;0.10;;;0.10;;
23466;SDS011;59740;47.696;11.746;2023-11-19T08:15:12;0.52;;;0.20;;
23466;SDS011;59740;47.696;11.746;2023-11-19T08:17:41;0.32;;;0.20;;
23466;SDS011;59740;47.696;11.746;2023-11-19T08:20:10;0.15;;;0.10;;
23466;SDS011;59740;47.696;11.746;2023-11-19T08:22:39;0.20;;;0.20;;
23466;SDS011;59740;47.696;11.746;2023-11-19T08:25:09;0.15;;;0.15;;
23466;SDS011;59740;47.696;11.746;2023-11-19T08:27:38;0.22;;;0.15;;
23466;SDS011;59740;47.696;11.746;2023-11-19T08:30:06;0.10;;;0.10;;
23466;SDS011;59740;47.696;11.746;2023-11-19T08:32:36;0.13;;;0.13;;
23466;SDS011;59740;47.696;11.746;2023-11-19T08:35:05;0.10;;;0.10;;
23466;SDS011;59740;47.696;11.746;2023-11-19T08:37:34;0.68;;;0.30;;
23466;SDS011;59740;47.696;11.746;2023-11-19T08:40:03;0.25;;;0.20;;
23466;SDS011;59740;47.696;11.746;2023-11-19T08:42:35;3.05;;;1.90;;
23466;SDS011;59740;47.696;11.746;2023-11-19T08:45:06;2.58;;;1.48;;
23466;SDS011;59740;47.696;11.746;2023-11-19T08:47:37;2.45;;;0.70;;
23466;SDS011;59740;47.696;11.746;2023-11-19T08:50:07;0.82;;;0.60;;
23466;SDS011;59740;47.696;11.746;2023-11-19T08:52:37;0.73;;;0.40;;
23466;SDS011;59740;47.696;11.746;2023-11-19T08:55:06;0.88;;;0.40;;
23466;SDS011;59740;47.696;11.746;2023-11-19T08:57:38;0.60;;;0.30;;
23466;SDS011;59740;47.696;11.746;2023-11-19T09:00:07;0.47;;;0.32;;
23466;SDS011;59740;47.696;11.746;2023-11-19T09:02:35;6.07;;;3.67;;
23466;SDS011;59740;47.696;11.746;2023-11-19T09:05:05;8.02;;;6.97;;
23466;SDS011;59740;47.696;11.746;2023-11-19T09:07:35;4.95;;;3.40;;
23466;SDS011;59740;47.696;11.746;2023-11-19T09:10:04;8.35;;;7.13;;
23466;SDS011;59740;47.696;11.746;2023-11-19T09:12:35;2.15;;;1.35;;
23466;SDS011;59740;47.696;11.746;2023-11-19T09:15:05;1.20;;;0.75;;
23466;SDS011;59740;47.696;11.746;2023-11-19T09:17:37;1.05;;;0.60;;
23466;SDS011;59740;47.696;11.746;2023-11-19T09:20:06;0.98;;;0.40;;
23466;SDS011;59740;47.696;11.746;2023-11-19T09:22:38;0.10;;;0.10;;
23466;SDS011;59740;47.696;11.746;2023-11-19T09:25:07;0.20;;;0.20;;
23466;SDS011;59740;47.696;11.746;2023-11-19T09:27:37;0.47;;;0.20;;
23466;SDS011;59740;47.696;11.746;2023-11-19T09:30:06;0.90;;;0.20;;
23466;SDS011;59740;47.696;11.746;2023-11-19T09:32:35;0.17;;;0.17;;
23466;SDS011;59740;47.696;11.746;2023-11-19T09:35:05;0.10;;;0.10;;
23466;SDS011;59740;47.696;11.746;2023-11-19T09:37:34;0.22;;;0.10;;
23466;SDS011;59740;47.696;11.746;2023-11-19T09:40:04;0.13;;;0.10;;
23466;SDS011;59740;47.696;11.746;2023-11-19T09:42:39;0.45;;;0.30;;
23466;SDS011;59740;47.696;11.746;2023-11-19T09:45:12;0.20;;;0.20;;
23466;SDS011;59740;47.696;11.746;2023-11-19T09:47:43;0.47;;;0.40;;
23466;SDS011;59740;47.696;11.746;2023-11-19T09:50:14;0.20;;;0.20;;
23466;SDS011;59740;47.696;11.746;2023-11-19T09:52:46;0.57;;;0.30;;
23466;SDS011;59740;47.696;11.746;2023-11-19T09:55:15;0.15;;;0.10;;
23466;SDS011;59740;47.696;11.746;2023-11-19T09:57:45;0.25;;;0.10;;
23466;SDS011;59740;47.696;11.746;2023-11-19T10:00:18;0.32;;;0.20;;
23466;SDS011;59740;47.696;11.746;2023-11-19T10:02:48;0.30;;;0.30;;
23466;SDS011;59740;47.696;11.746;2023-11-19T10:05:18;0.20;;;0.20;;
23466;SDS011;59740;47.696;11.746;2023-11-19T10:07:50;0.28;;;0.20;;
23466;SDS011;59740;47.696;11.746;2023-11-19T10:10:18;0.20;;;0.20;;
23466;SDS011;59740;47.696;11.746;2023-11-19T10:12:50;0.20;;;0.20;;
23466;SDS011;59740;47.696;11.746;2023-11-19T10:15:22;0.93;;;0.30;;
23466;SDS011;59740;47.696;11.746;2023-11-19T10:17:54;1.42;;;0.38;;
23466;SDS011;59740;47.696;11.746;2023-11-19T10:20:24;0.20;;;0.20;;
23466;SDS011;59740;47.696;11.746;2023-11-19T10:22:52;0.68;;;0.20;;
23466;SDS011;59740;47.696;11.746;2023-11-19T10:25:22;0.20;;;0.20;;
23466;SDS011;59740;47.696;11.746;2023-11-19T10:27:52;0.10;;;0.10;;
23466;SDS011;59740;47.696;11.746;2023-11-19T10:30:22;0.43;;;0.20;;
23466;SDS011;59740;47.696;11.746;2023-11-19T10:33:04;0.43;;;0.30;;
23466;SDS011;59740;47.696;11.746;2023-11-19T10:35:34;0.43;;;0.20;;
23466;SDS011;59740;47.696;11.746;2023-11-19T10:38:13;0.10;;;0.10;;
23466;SDS011;59740;47.696;11.746;2023-11-19T10:40:42;0.10;;;0.10;;
23466;SDS011;59740;47.696;11.746;2023-11-19T10:43:12;0.20;;;0.20;;
23466;SDS011;59740;47.696;11.746;2023-11-19T10:45:41;0.10;;;0.10;;
23466;SDS011;59740;47.696;11.746;2023-11-19T10:48:09;0.32;;;0.20;;
23466;SDS011;59740;47.696;11.746;2023-11-19T10:50:40;0.40;;;0.20;;
23466;SDS011;59740;47.696;11.746;2023-11-19T10:53:11;1.08;;;0.20;;
23466;SDS011;59740;47.696;11.746;2023-11-19T10:55:41;0.43;;;0.20;;
23466;SDS011;59740;47.696;11.746;2023-11-19T10:58:15;0.47;;;0.22;;
23466;SDS011;59740;47.696;11.746;2023-11-19T11:00:45;0.22;;;0.20;;
23466;SDS011;59740;47.696;11.746;2023-11-19T11:03:16;1.15;;;0.20;;
23466;SDS011;59740;47.696;11.746;2023-11-19T11:05:46;0.20;;;0.13;;
23466;SDS011;59740;47.696;11.746;2023-11-19T11:08:15;0.47;;;0.30;;
23466;SDS011;59740;47.696;11.746;2023-11-19T11:10:45;0.10;;;0.10;;
23466;SDS011;59740;47.696;11.746;2023-11-19T11:13:24;0.30;;;0.20;;
23466;SDS011;59740;47.696;11.746;2023-11-19T11:15:56;0.77;;;0.20;;
23466;SDS011;59740;47.696;11.746;2023-11-19T11:18:26;0.30;;;0.20;;
23466;SDS011;59740;47.696;11.746;2023-11-19T11:20:56;0.43;;;0.20;;
23466;SDS011;59740;47.696;11.746;2023-11-19T11:23:44;2.00;;;1.42;;
23466;SDS011;59740;47.696;11.746;2023-11-19T11:26:30;1.20;;;0.80;;
23466;SDS011;59740;47.696;11.746;2023-11-19T11:29:16;0.32;;;0.20;;
23466;SDS011;59740;47.696;11.746;2023-11-19T11:31:56;0.20;;;0.20;;
23466;SDS011;59740;47.696;11.746;2023-11-19T11:34:43;0.30;;;0.20;;
23466;SDS011;59740;47.696;11.746;2023-11-19T11:37:25;0.40;;;0.20;;
23466;SDS011;59740;47.696;11.746;2023-11-19T11:39:58;0.20;;;0.20;;
23466;SDS011;59740;47.696;11.746;2023-11-19T11:42:32;0.20;;;0.20;;
23466;SDS011;59740;47.696;11.746;2023-11-19T11:45:04;0.20;;;0.10;;
23466;SDS011;59740;47.696;11.746;2023-11-19T11:50:47;0.22;;;0.20;;
23466;SDS011;59740;47.696;11.746;2023-11-19T11:53:17;0.30;;;0.20;;
23466;SDS011;59740;47.696;11.746;2023-11-19T11:55:53;1.48;;;0.25;;
23466;SDS011;59740;47.696;11.746;2023-11-19T11:58:31;0.28;;;0.28;;
23466;SDS011;59740;47.696;11.746;2023-11-19T12:01:03;0.80;;;0.30;;
23466;SDS011;59740;47.696;11.746;2023-11-19T12:03:33;0.73;;;0.30;;
23466;SDS011;59740;47.696;11.746;2023-11-19T12:06:02;0.30;;;0.25;;
23466;SDS011;59740;47.696;11.746;2023-11-19T12:08:31;0.90;;;0.40;;
23466;SDS011;59740;47.696;11.746;2023-11-19T12:11:19;0.63;;;0.30;;
23466;SDS011;59740;47.696;11.746;2023-11-19T12:13:54;0.70;;;0.30;;
23466;SDS011;59740;47.696;11.746;2023-11-19T12:16:27;0.30;;;0.30;;
23466;SDS011;59740;47.696;11.746;2023-11-19T12:18:57;0.20;;;0.20;;
23466;SDS011;59740;47.696;11.746;2023-11-19T12:21:32;0.32;;;0.30;;
23466;SDS011;59740;47.696;11.746;2023-11-19T12:24:04;0.57;;;0.32;;
23466;SDS011;59740;47.696;11.746;2023-11-19T12:26:35;1.27;;;0.30;;
23466;SDS011;59740;47.696;11.746;2023-11-19T12:29:05;0.65;;;0.30;;
23466;SDS011;59740;47.696;11.746;2023-11-19T12:31:37;0.30;;;0.22;;
23466;SDS011;59740;47.696;11.746;2023-11-19T12:34:09;1.58;;;0.70;;
23466;SDS011;59740;47.696;11.746;2023-11-19T12:36:40;1.05;;;0.70;;
23466;SDS011;59740;47.696;11.746;2023-11-19T12:39:10;0.57;;;0.35;;
23466;SDS011;59740;47.696;11.746;2023-11-19T12:41:53;0.32;;;0.30;;
23466;SDS011;59740;47.696;11.746;2023-11-19T12:44:22;0.55;;;0.38;;
23466;SDS011;59740;47.696;11.746;2023-11-19T12:47:01;0.47;;;0.35;;
23466;SDS011;59740;47.696;11.746;2023-11-19T12:49:31;1.60;;;0.80;;
23466;SDS011;59740;47.696;11.746;2023-11-19T12:52:00;6.40;;;4.03;;
23466;SDS011;59740;47.696;11.746;2023-11-19T12:54:32;17.83;;;11.88;;
23466;SDS011;59740;47.696;11.746;2023-11-19T12:57:01;7.75;;;5.40;;
23466;SDS011;59740;47.696;11.746;2023-11-19T12:59:31;5.38;;;3.30;;
23466;SDS011;59740;47.696;11.746;2023-11-19T13:02:01;5.45;;;3.33;;
23466;SDS011;59740;47.696;11.746;2023-11-19T13:04:33;4.40;;;1.70;;
23466;SDS011;59740;47.696;11.746;2023-11-19T13:07:01;3.10;;;1.77;;
23466;SDS011;59740;47.696;11.746;2023-11-19T13:09:32;1.13;;;0.57;;
23466;SDS011;59740;47.696;11.746;2023-11-19T13:12:11;1.15;;;0.52;;
23466;SDS011;59740;47.696;11.746;2023-11-19T13:14:40;1.95;;;0.90;;
23466;SDS011;59740;47.696;11.746;2023-11-19T13:17:16;1.98;;;0.60;;
23466;SDS011;59740;47.696;11.746;2023-11-19T13:19:46;0.63;;;0.40;;
23466;SDS011;59740;47.696;11.746;2023-11-19T13:22:17;1.10;;;0.60;;
23466;SDS011;59740;47.696;11.746;2023-11-19T13:24:46;1.83;;;0.90;;
23466;SDS011;59740;47.696;11.746;2023-11-19T13:27:14;0.95;;;0.30;;
23466;SDS011;59740;47.696;11.746;2023-11-19T13:29:43;0.52;;;0.30;;
23466;SDS011;59740;47.696;11.746;2023-11-19T13:32:12;1.15;;;0.63;;
23466;SDS011;59740;47.696;11.746;2023-11-19T13:34:41;0.90;;;0.55;;
23466;SDS011;59740;47.696;11.746;2023-11-19T13:37:10;0.45;;;0.40;;
23466;SDS011;59740;47.696;11.746;2023-11-19T13:39:41;1.23;;;0.20;;
23466;SDS011;59740;47.696;11.746;2023-11-19T13:42:10;2.13;;;0.70;;
23466;SDS011;59740;47.696;11.746;2023-11-19T13:44:40;2.25;;;0.98;;
23466;SDS011;59740;47.696;11.746;2023-11-19T13:47:09;1.08;;;0.60;;
23466;SDS011;59740;47.696;11.746;2023-11-19T13:49:38;0.63;;;0.50;;
23466;SDS011;59740;47.696;11.746;2023-11-19T13:52:07;2.08;;;1.13;;
23466;SDS011;59740;47.696;11.746;2023-11-19T13:54:36;2.25;;;1.05;;
23466;SDS011;59740;47.696;11.746;2023-11-19T13:57:05;0.50;;;0.30;;
23466;SDS011;59740;47.696;11.746;2023-11-19T13:59:34;0.80;;;0.40;;
23466;SDS011;59740;47.696;11.746;2023-11-19T14:02:08;0.32;;;0.30;;
23466;SDS011;59740;47.696;11.746;2023-11-19T14:04:36;1.77;;;1.00;;
23466;SDS011;59740;47.696;11.746;2023-11-19T14:07:05;1.50;;;0.75;;
23466;SDS011;59740;47.696;11.746;2023-11-19T14:09:35;0.40;;;0.40;;
23466;SDS011;59740;47.696;11.746;2023-11-19T14:12:03;0.73;;;0.47;;
23466;SDS011;59740;47.696;11.746;2023-11-19T14:14:33;0.38;;;0.38;;
23466;SDS011;59740;47.696;11.746;2023-11-19T14:17:01;0.40;;;0.30;;
23466;SDS011;59740;47.696;11.746;2023-11-19T14:19:33;0.20;;;0.20;;
23466;SDS011;59740;47.696;11.746;2023-11-19T14:22:02;2.58;;;1.80;;
23466;SDS011;59740;47.696;11.746;2023-11-19T14:24:30;1.30;;;0.50;;
23466;SDS011;59740;47.696;11.746;2023-11-19T14:27:00;0.88;;;0.60;;
23466;SDS011;59740;47.696;11.746;2023-11-19T14:29:29;0.30;;;0.30;;
23466;SDS011;59740;47.696;11.746;2023-11-19T14:31:57;0.40;;;0.30;;
23466;SDS011;59740;47.696;11.746;2023-11-19T14:34:26;0.28;;;0.20;;
23466;SDS011;59740;47.696;11.746;2023-11-19T14:36:55;0.45;;;0.30;;
23466;SDS011;59740;47.696;11.746;2023-11-19T14:39:23;0.30;;;0.30;;
23466;SDS011;59740;47.696;11.746;2023-11-19T14:41:52;0.85;;;0.43;;
23466;SDS011;59740;47.696;11.746;2023-11-19T14:44:26;1.02;;;0.40;;
23466;SDS011;59740;47.696;11.746;2023-11-19T14:46:55;0.63;;;0.40;;
23466;SDS011;59740;47.696;11.746;2023-11-19T14:49:24;0.43;;;0.40;;
23466;SDS011;59740;47.696;11.746;2023-11-19T14:51:54;0.38;;;0.30;;
23466;SDS011;59740;47.696;11.746;2023-11-19T14:54:22;0.70;;;0.30;;